JBU353 KBOS-EIDW
Flight info
| Callsign | JBU353 |
|---|---|
| Flight time | N/A |
| Altitude | 33000 |
| Route | LBSTA8 LBSTA DCT ALLEX N431B ELSIR/M078F340 NATU NETKI/N0446F350 DCT REVNU DCT OLAPO |
| Aircraft | A21N/M-SDE2E3FGHIRWXY/LB1 |
Departure
| Time | 2026-05-04 01:50 |
|---|---|
| Airport | Boston Logan International Airport (KBOS) |
Arrival
| Time | N/A |
|---|---|
| Airport | Dublin Airport (EIDW) |
| Time | Latitude | Longitude | Altitude | Speed | Heading |
|---|---|---|---|---|---|
| 2026-05-04 01:07 | 42.36564 | -71.01662 | 31 ft | 0 kts | 336° |
| 2026-05-04 01:30 | 42.36555 | -71.01657 | 31 ft | 4 kts | 336° |
| 2026-05-04 01:31 | 42.36530 | -71.01642 | 31 ft | 4 kts | 336° |
| 2026-05-04 01:31 | 42.36510 | -71.01630 | 31 ft | 3 kts | 336° |
| 2026-05-04 01:31 | 42.36485 | -71.01620 | 31 ft | 4 kts | 357° |
| 2026-05-04 01:31 | 42.36462 | -71.01626 | 31 ft | 4 kts | 41° |
| 2026-05-04 01:32 | 42.36458 | -71.01627 | 31 ft | 4 kts | 66° |
| 2026-05-04 01:32 | 42.36452 | -71.01600 | 31 ft | 3 kts | 121° |
| 2026-05-04 01:32 | 42.36439 | -71.01572 | 31 ft | 4 kts | 121° |
| 2026-05-04 01:32 | 42.36425 | -71.01541 | 31 ft | 4 kts | 121° |
| 2026-05-04 01:33 | 42.36411 | -71.01510 | 31 ft | 4 kts | 121° |
| 2026-05-04 01:33 | 42.36406 | -71.01500 | 31 ft | 0 kts | 121° |
| 2026-05-04 01:37 | 42.36379 | -71.01432 | 31 ft | 14 kts | 112° |
| 2026-05-04 01:37 | 42.36334 | -71.01310 | 31 ft | 15 kts | 121° |
| 2026-05-04 01:37 | 42.36277 | -71.01192 | 31 ft | 15 kts | 122° |
| 2026-05-04 01:37 | 42.36231 | -71.01063 | 31 ft | 15 kts | 114° |
| 2026-05-04 01:38 | 42.36188 | -71.00929 | 31 ft | 16 kts | 114° |
| 2026-05-04 01:38 | 42.36142 | -71.00794 | 31 ft | 16 kts | 114° |
| 2026-05-04 01:38 | 42.36105 | -71.00654 | 32 ft | 16 kts | 108° |
| 2026-05-04 01:38 | 42.36067 | -71.00509 | 31 ft | 16 kts | 109° |
| 2026-05-04 01:39 | 42.36029 | -71.00362 | 31 ft | 17 kts | 109° |
| 2026-05-04 01:39 | 42.35991 | -71.00212 | 31 ft | 17 kts | 109° |
| 2026-05-04 01:39 | 42.35941 | -71.00069 | 31 ft | 17 kts | 128° |
| 2026-05-04 01:39 | 42.35858 | -70.99952 | 31 ft | 17 kts | 135° |
| 2026-05-04 01:40 | 42.35772 | -70.99837 | 31 ft | 18 kts | 136° |
| 2026-05-04 01:40 | 42.35685 | -70.99721 | 31 ft | 18 kts | 135° |
| 2026-05-04 01:40 | 42.35597 | -70.99603 | 31 ft | 18 kts | 135° |
| 2026-05-04 01:40 | 42.35520 | -70.99500 | 31 ft | 9 kts | 134° |
| 2026-05-04 01:41 | 42.35490 | -70.99439 | 31 ft | 1 kts | 101° |
| 2026-05-04 01:41 | 42.35489 | -70.99434 | 31 ft | 0 kts | 101° |
| 2026-05-04 01:47 | 42.35487 | -70.99416 | 31 ft | 4 kts | 93° |
| 2026-05-04 01:47 | 42.35492 | -70.99353 | 31 ft | 9 kts | 79° |
| 2026-05-04 01:47 | 42.35541 | -70.99279 | 31 ft | 11 kts | 351° |
| 2026-05-04 01:47 | 42.35563 | -70.99298 | 31 ft | 0 kts | 316° |
| 2026-05-04 01:49 | 42.35569 | -70.99305 | 31 ft | 12 kts | 316° |
| 2026-05-04 01:49 | 42.35794 | -70.99607 | 31 ft | 78 kts | 315° |
| 2026-05-04 01:49 | 42.36329 | -71.00321 | 30 ft | 138 kts | 315° |
| 2026-05-04 01:49 | 42.37121 | -71.01372 | 258 ft | 167 kts | 315° |
| 2026-05-04 01:50 | 42.37916 | -71.02510 | 1009 ft | 168 kts | 308° |
| 2026-05-04 01:50 | 42.38658 | -71.03813 | 1655 ft | 183 kts | 307° |
| 2026-05-04 01:50 | 42.39422 | -71.05233 | 2173 ft | 190 kts | 301° |
| 2026-05-04 01:50 | 42.40017 | -71.06883 | 2600 ft | 203 kts | 295° |
| 2026-05-04 01:51 | 42.40742 | -71.08653 | 2873 ft | 225 kts | 303° |
| 2026-05-04 01:51 | 42.41837 | -71.10248 | 3369 ft | 239 kts | 323° |
| 2026-05-04 01:51 | 42.43354 | -71.11238 | 4044 ft | 246 kts | 335° |
| 2026-05-04 01:51 | 42.44419 | -71.11778 | 4535 ft | 247 kts | 336° |
| 2026-05-04 01:52 | 42.46027 | -71.12595 | 5292 ft | 247 kts | 335° |
| 2026-05-04 01:52 | 42.47637 | -71.13433 | 6068 ft | 248 kts | 335° |
| 2026-05-04 01:52 | 42.49308 | -71.14073 | 6756 ft | 254 kts | 349° |
| 2026-05-04 01:52 | 42.51091 | -71.13857 | 7387 ft | 267 kts | 11° |
| 2026-05-04 01:53 | 42.52734 | -71.12566 | 8027 ft | 283 kts | 37° |
| 2026-05-04 01:53 | 42.54014 | -71.10488 | 8685 ft | 292 kts | 49° |
| 2026-05-04 01:53 | 42.55162 | -71.08197 | 9319 ft | 295 kts | 49° |
| 2026-05-04 01:53 | 42.56325 | -71.05892 | 9929 ft | 298 kts | 48° |
| 2026-05-04 01:54 | 42.57536 | -71.03559 | 10332 ft | 308 kts | 48° |
| 2026-05-04 01:54 | 42.58812 | -71.01147 | 10588 ft | 322 kts | 48° |
| 2026-05-04 01:54 | 42.60157 | -70.98620 | 10819 ft | 338 kts | 48° |
| 2026-05-04 01:54 | 42.61568 | -70.95975 | 11043 ft | 354 kts | 48° |
| 2026-05-04 01:55 | 42.63044 | -70.93215 | 11273 ft | 368 kts | 49° |
| 2026-05-04 01:55 | 42.64579 | -70.90346 | 11489 ft | 382 kts | 49° |
| 2026-05-04 01:55 | 42.66154 | -70.87393 | 11912 ft | 389 kts | 49° |
| 2026-05-04 01:55 | 42.67745 | -70.84411 | 12446 ft | 392 kts | 49° |
| 2026-05-04 01:56 | 42.69349 | -70.81389 | 12992 ft | 395 kts | 49° |
| 2026-05-04 01:56 | 42.70970 | -70.78350 | 13487 ft | 399 kts | 49° |
| 2026-05-04 01:56 | 42.72605 | -70.75283 | 13944 ft | 402 kts | 49° |
| 2026-05-04 01:56 | 42.74231 | -70.72235 | 14372 ft | 405 kts | 49° |
| 2026-05-04 01:57 | 42.75876 | -70.69142 | 14828 ft | 407 kts | 49° |
| 2026-05-04 01:57 | 42.77551 | -70.65990 | 15280 ft | 410 kts | 49° |
| 2026-05-04 01:57 | 42.79229 | -70.62830 | 15745 ft | 413 kts | 49° |
| 2026-05-04 01:57 | 42.80859 | -70.59578 | 16231 ft | 417 kts | 52° |
| 2026-05-04 01:58 | 42.82443 | -70.56251 | 16729 ft | 420 kts | 52° |
| 2026-05-04 01:58 | 42.84029 | -70.52903 | 17213 ft | 423 kts | 52° |
| 2026-05-04 01:58 | 42.85627 | -70.49525 | 17693 ft | 425 kts | 52° |
| 2026-05-04 01:58 | 42.87235 | -70.46123 | 18170 ft | 428 kts | 52° |
| 2026-05-04 01:59 | 42.88850 | -70.42706 | 18565 ft | 430 kts | 52° |
| 2026-05-04 01:59 | 42.90475 | -70.39254 | 18978 ft | 433 kts | 52° |
| 2026-05-04 01:59 | 42.92107 | -70.35794 | 19376 ft | 435 kts | 52° |
| 2026-05-04 01:59 | 42.93746 | -70.32324 | 19767 ft | 437 kts | 52° |
| 2026-05-04 02:00 | 42.95395 | -70.28824 | 20166 ft | 439 kts | 52° |
| 2026-05-04 02:00 | 42.97050 | -70.25302 | 20560 ft | 442 kts | 52° |
| 2026-05-04 02:00 | 42.98705 | -70.21759 | 20947 ft | 444 kts | 52° |
| 2026-05-04 02:00 | 43.00368 | -70.18195 | 21324 ft | 446 kts | 52° |
| 2026-05-04 02:01 | 43.02043 | -70.14618 | 21691 ft | 448 kts | 52° |
| 2026-05-04 02:01 | 43.03727 | -70.11022 | 22050 ft | 450 kts | 52° |
| 2026-05-04 02:01 | 43.05418 | -70.07414 | 22403 ft | 452 kts | 52° |
| 2026-05-04 02:01 | 43.07117 | -70.03787 | 22747 ft | 454 kts | 52° |
| 2026-05-04 02:02 | 43.08821 | -70.00137 | 23101 ft | 456 kts | 52° |
| 2026-05-04 02:02 | 43.10530 | -69.96469 | 23437 ft | 458 kts | 52° |
| 2026-05-04 02:02 | 43.12246 | -69.92777 | 23717 ft | 461 kts | 52° |
| 2026-05-04 02:02 | 43.13964 | -69.89073 | 24017 ft | 463 kts | 52° |
| 2026-05-04 02:03 | 43.15689 | -69.85337 | 24308 ft | 465 kts | 53° |
| 2026-05-04 02:03 | 43.17414 | -69.81574 | 24585 ft | 468 kts | 53° |
| 2026-05-04 02:03 | 43.19145 | -69.77787 | 24865 ft | 470 kts | 53° |